sensor_id;sensor_type;location;lat;lon;timestamp;pressure;altitude;pressure_sealevel;temperature;humidity
30554;BME280;17335;50.720;7.452;2023-02-18T00:00:20;100024.09;;;9.88;100.00
30554;BME280;17335;50.720;7.452;2023-02-18T00:02:49;100017.06;;;9.87;100.00
30554;BME280;17335;50.720;7.452;2023-02-18T00:05:18;100019.13;;;9.84;100.00
30554;BME280;17335;50.720;7.452;2023-02-18T00:07:44;100014.25;;;9.89;100.00
30554;BME280;17335;50.720;7.452;2023-02-18T00:10:13;100014.25;;;9.89;100.00
30554;BME280;17335;50.720;7.452;2023-02-18T00:12:40;100017.66;;;9.91;100.00
30554;BME280;17335;50.720;7.452;2023-02-18T00:15:07;100016.81;;;9.90;100.00
30554;BME280;17335;50.720;7.452;2023-02-18T00:17:35;100029.22;;;9.91;100.00
30554;BME280;17335;50.720;7.452;2023-02-18T00:20:02;100024.25;;;9.87;100.00
30554;BME280;17335;50.720;7.452;2023-02-18T00:22:30;100030.59;;;9.86;100.00
30554;BME280;17335;50.720;7.452;2023-02-18T00:24:56;100026.91;;;9.98;100.00
30554;BME280;17335;50.720;7.452;2023-02-18T00:27:23;100023.25;;;9.88;100.00
30554;BME280;17335;50.720;7.452;2023-02-18T00:29:49;100020.81;;;9.85;100.00
30554;BME280;17335;50.720;7.452;2023-02-18T00:32:16;100013.72;;;9.95;100.00
30554;BME280;17335;50.720;7.452;2023-02-18T00:34:42;100018.13;;;9.96;100.00
30554;BME280;17335;50.720;7.452;2023-02-18T00:37:09;100014.25;;;9.89;100.00
30554;BME280;17335;50.720;7.452;2023-02-18T00:39:36;100005.59;;;9.85;100.00
30554;BME280;17335;50.720;7.452;2023-02-18T00:42:03;100003.34;;;10.02;100.00
30554;BME280;17335;50.720;7.452;2023-02-18T00:44:29;100005.22;;;9.90;100.00
30554;BME280;17335;50.720;7.452;2023-02-18T00:46:56;99987.19;;;9.92;100.00
30554;BME280;17335;50.720;7.452;2023-02-18T00:49:22;99994.75;;;9.87;100.00
30554;BME280;17335;50.720;7.452;2023-02-18T00:51:49;100002.91;;;9.85;100.00
30554;BME280;17335;50.720;7.452;2023-02-18T00:54:15;100004.13;;;9.92;100.00
30554;BME280;17335;50.720;7.452;2023-02-18T00:56:42;99999.84;;;9.90;100.00
30554;BME280;17335;50.720;7.452;2023-02-18T00:59:08;99985.34;;;9.92;100.00
30554;BME280;17335;50.720;7.452;2023-02-18T01:01:34;99981.31;;;9.98;100.00
30554;BME280;17335;50.720;7.452;2023-02-18T01:04:01;99977.66;;;9.99;100.00
30554;BME280;17335;50.720;7.452;2023-02-18T01:06:27;99974.38;;;9.84;100.00
30554;BME280;17335;50.720;7.452;2023-02-18T01:08:54;99961.22;;;9.81;100.00
30554;BME280;17335;50.720;7.452;2023-02-18T01:11:21;99952.94;;;9.84;100.00
30554;BME280;17335;50.720;7.452;2023-02-18T01:13:49;99964.25;;;9.88;100.00
30554;BME280;17335;50.720;7.452;2023-02-18T01:16:15;99975.03;;;9.76;100.00
30554;BME280;17335;50.720;7.452;2023-02-18T01:18:43;99965.25;;;9.75;100.00
30554;BME280;17335;50.720;7.452;2023-02-18T01:21:09;99969.66;;;9.76;100.00
30554;BME280;17335;50.720;7.452;2023-02-18T01:23:37;99965.00;;;9.79;100.00
30554;BME280;17335;50.720;7.452;2023-02-18T01:26:05;99970.38;;;9.79;100.00
30554;BME280;17335;50.720;7.452;2023-02-18T01:28:32;99963.06;;;9.81;100.00
30554;BME280;17335;50.720;7.452;2023-02-18T01:31:04;99967.53;;;9.91;100.00
30554;BME280;17335;50.720;7.452;2023-02-18T01:33:32;99972.94;;;9.80;100.00
30554;BME280;17335;50.720;7.452;2023-02-18T01:35:58;99960.59;;;9.89;100.00
30554;BME280;17335;50.720;7.452;2023-02-18T01:38:24;99951.72;;;9.77;100.00
30554;BME280;17335;50.720;7.452;2023-02-18T01:40:52;99956.69;;;9.93;100.00
30554;BME280;17335;50.720;7.452;2023-02-18T01:43:19;99958.06;;;9.87;100.00
30554;BME280;17335;50.720;7.452;2023-02-18T01:51:11;99962.69;;;9.85;100.00
30554;BME280;17335;50.720;7.452;2023-02-18T01:53:39;99969.13;;;9.94;100.00
30554;BME280;17335;50.720;7.452;2023-02-18T01:56:16;99956.09;;;9.89;100.00
30554;BME280;17335;50.720;7.452;2023-02-18T01:58:44;99950.38;;;9.83;100.00
30554;BME280;17335;50.720;7.452;2023-02-18T02:03:40;99955.50;;;9.86;100.00
30554;BME280;17335;50.720;7.452;2023-02-18T02:06:14;99946.72;;;9.84;100.00
30554;BME280;17335;50.720;7.452;2023-02-18T02:08:43;99949.38;;;9.95;100.00
30554;BME280;17335;50.720;7.452;2023-02-18T02:14:06;99949.88;;;9.89;100.00
30554;BME280;17335;50.720;7.452;2023-02-18T02:16:46;99940.84;;;9.90;100.00
30554;BME280;17335;50.720;7.452;2023-02-18T02:28:01;99931.00;;;9.68;100.00
30554;BME280;17335;50.720;7.452;2023-02-18T02:31:09;99931.41;;;9.63;100.00
30554;BME280;17335;50.720;7.452;2023-02-18T02:36:54;99925.53;;;9.69;100.00
30554;BME280;17335;50.720;7.452;2023-02-18T02:42:24;99925.19;;;9.63;100.00
30554;BME280;17335;50.720;7.452;2023-02-18T02:45:09;99924.25;;;9.52;100.00
30554;BME280;17335;50.720;7.452;2023-02-18T02:50:20;99909.00;;;9.53;100.00
30554;BME280;17335;50.720;7.452;2023-02-18T02:52:57;99906.81;;;9.47;100.00
30554;BME280;17335;50.720;7.452;2023-02-18T02:55:25;99902.44;;;9.46;100.00
30554;BME280;17335;50.720;7.452;2023-02-18T02:57:54;99903.16;;;9.48;100.00
30554;BME280;17335;50.720;7.452;2023-02-18T03:03:54;99899.75;;;9.46;100.00
30554;BME280;17335;50.720;7.452;2023-02-18T03:06:35;99904.53;;;9.42;100.00
30554;BME280;17335;50.720;7.452;2023-02-18T03:14:45;99881.47;;;9.51;100.00
30554;BME280;17335;50.720;7.452;2023-02-18T03:17:25;99883.41;;;9.49;100.00
30554;BME280;17335;50.720;7.452;2023-02-18T03:20:24;99873.44;;;9.51;100.00
30554;BME280;17335;50.720;7.452;2023-02-18T03:22:52;99871.84;;;9.48;100.00
30554;BME280;17335;50.720;7.452;2023-02-18T03:25:22;99868.69;;;9.43;100.00
30554;BME280;17335;50.720;7.452;2023-02-18T03:27:55;99857.59;;;9.48;100.00
30554;BME280;17335;50.720;7.452;2023-02-18T03:30:37;99847.34;;;9.53;100.00
30554;BME280;17335;50.720;7.452;2023-02-18T03:33:09;99838.72;;;9.49;100.00
30554;BME280;17335;50.720;7.452;2023-02-18T03:35:37;99831.53;;;9.50;100.00
30554;BME280;17335;50.720;7.452;2023-02-18T03:40:52;99835.63;;;9.54;100.00
30554;BME280;17335;50.720;7.452;2023-02-18T03:43:18;99834.56;;;9.56;100.00
30554;BME280;17335;50.720;7.452;2023-02-18T03:45:45;99825.06;;;9.52;100.00
30554;BME280;17335;50.720;7.452;2023-02-18T03:48:12;99823.13;;;9.54;100.00
30554;BME280;17335;50.720;7.452;2023-02-18T03:50:38;99828.47;;;9.54;100.00
30554;BME280;17335;50.720;7.452;2023-02-18T03:53:05;99828.81;;;9.61;100.00
30554;BME280;17335;50.720;7.452;2023-02-18T03:55:31;99816.59;;;9.68;100.00
30554;BME280;17335;50.720;7.452;2023-02-18T03:57:58;99816.19;;;9.73;100.00
30554;BME280;17335;50.720;7.452;2023-02-18T04:00:24;99815.03;;;9.66;100.00
30554;BME280;17335;50.720;7.452;2023-02-18T04:02:53;99826.22;;;9.71;100.00
30554;BME280;17335;50.720;7.452;2023-02-18T04:05:20;99819.53;;;9.65;100.00
30554;BME280;17335;50.720;7.452;2023-02-18T04:07:46;99823.16;;;9.75;100.00
30554;BME280;17335;50.720;7.452;2023-02-18T04:10:13;99823.47;;;9.61;100.00
30554;BME280;17335;50.720;7.452;2023-02-18T04:12:39;99831.75;;;9.58;100.00
30554;BME280;17335;50.720;7.452;2023-02-18T04:15:06;99836.88;;;9.50;100.00
30554;BME280;17335;50.720;7.452;2023-02-18T04:17:33;99834.91;;;9.52;100.00
30554;BME280;17335;50.720;7.452;2023-02-18T04:20:00;99827.13;;;9.49;100.00
30554;BME280;17335;50.720;7.452;2023-02-18T04:22:26;99829.09;;;9.47;100.00
30554;BME280;17335;50.720;7.452;2023-02-18T04:24:53;99820.22;;;9.46;100.00
30554;BME280;17335;50.720;7.452;2023-02-18T04:27:19;99820.22;;;9.46;100.00
30554;BME280;17335;50.720;7.452;2023-02-18T04:29:46;99821.41;;;9.53;100.00
30554;BME280;17335;50.720;7.452;2023-02-18T04:32:12;99818.59;;;9.55;100.00
30554;BME280;17335;50.720;7.452;2023-02-18T04:34:39;99818.94;;;9.62;100.00
30554;BME280;17335;50.720;7.452;2023-02-18T04:37:06;99806.78;;;9.57;100.00
30554;BME280;17335;50.720;7.452;2023-02-18T04:39:32;99802.13;;;9.60;100.00
30554;BME280;17335;50.720;7.452;2023-02-18T04:41:59;99799.34;;;9.61;100.00
30554;BME280;17335;50.720;7.452;2023-02-18T04:44:26;99799.53;;;9.69;100.00
30554;BME280;17335;50.720;7.452;2023-02-18T04:46:52;99789.72;;;9.80;100.00
30554;BME280;17335;50.720;7.452;2023-02-18T04:49:19;99791.31;;;9.82;100.00
30554;BME280;17335;50.720;7.452;2023-02-18T04:51:45;99789.81;;;9.89;100.00
30554;BME280;17335;50.720;7.452;2023-02-18T04:54:12;99788.75;;;9.81;100.00
30554;BME280;17335;50.720;7.452;2023-02-18T04:56:38;99787.50;;;9.85;100.00
30554;BME280;17335;50.720;7.452;2023-02-18T04:59:05;99781.09;;;9.76;100.00
30554;BME280;17335;50.720;7.452;2023-02-18T05:01:33;99786.72;;;9.73;100.00
30554;BME280;17335;50.720;7.452;2023-02-18T05:03:59;99779.78;;;9.70;100.00
30554;BME280;17335;50.720;7.452;2023-02-18T05:06:27;99779.31;;;9.65;100.00
30554;BME280;17335;50.720;7.452;2023-02-18T05:08:53;99780.16;;;9.66;100.00
30554;BME280;17335;50.720;7.452;2023-02-18T05:11:20;99775.28;;;9.71;100.00
30554;BME280;17335;50.720;7.452;2023-02-18T05:13:46;99779.53;;;9.73;100.00
30554;BME280;17335;50.720;7.452;2023-02-18T05:16:13;99774.66;;;9.79;100.00
30554;BME280;17335;50.720;7.452;2023-02-18T05:18:40;99783.53;;;9.79;100.00
30554;BME280;17335;50.720;7.452;2023-02-18T05:21:07;99777.56;;;9.75;100.00
30554;BME280;17335;50.720;7.452;2023-02-18T05:23:33;99769.53;;;9.75;100.00
30554;BME280;17335;50.720;7.452;2023-02-18T05:26:00;99769.66;;;9.74;100.00
30554;BME280;17335;50.720;7.452;2023-02-18T05:28:26;99765.66;;;9.68;100.00
30554;BME280;17335;50.720;7.452;2023-02-18T05:30:53;99769.06;;;9.70;100.00
30554;BME280;17335;50.720;7.452;2023-02-18T05:33:20;99752.16;;;9.70;100.00
30554;BME280;17335;50.720;7.452;2023-02-18T05:35:47;99747.63;;;9.70;100.00
30554;BME280;17335;50.720;7.452;2023-02-18T05:38:14;99746.19;;;9.66;100.00
30554;BME280;17335;50.720;7.452;2023-02-18T05:40:40;99741.53;;;9.68;100.00
30554;BME280;17335;50.720;7.452;2023-02-18T05:43:07;99741.28;;;9.71;100.00
30554;BME280;17335;50.720;7.452;2023-02-18T05:45:34;99732.13;;;9.74;100.00
30554;BME280;17335;50.720;7.452;2023-02-18T05:48:01;99730.69;;;9.70;100.00
30554;BME280;17335;50.720;7.452;2023-02-18T05:50:28;99740.03;;;9.75;100.00
30554;BME280;17335;50.720;7.452;2023-02-18T05:52:54;99740.28;;;9.72;100.00
30554;BME280;17335;50.720;7.452;2023-02-18T05:55:21;99740.28;;;9.72;100.00
30554;BME280;17335;50.720;7.452;2023-02-18T05:57:49;99734.34;;;9.69;100.00
30554;BME280;17335;50.720;7.452;2023-02-18T06:00:16;99727.72;;;9.73;100.00
30554;BME280;17335;50.720;7.452;2023-02-18T06:02:43;99733.25;;;9.71;100.00
30554;BME280;17335;50.720;7.452;2023-02-18T06:05:09;99735.47;;;9.66;100.00
30554;BME280;17335;50.720;7.452;2023-02-18T06:07:36;99718.78;;;9.63;100.00
30554;BME280;17335;50.720;7.452;2023-02-18T06:10:04;99723.03;;;9.65;100.00
30554;BME280;17335;50.720;7.452;2023-02-18T06:12:31;99725.00;;;9.63;100.00
30554;BME280;17335;50.720;7.452;2023-02-18T06:14:57;99725.59;;;9.67;100.00
30554;BME280;17335;50.720;7.452;2023-02-18T06:17:24;99718.84;;;9.72;100.00
30554;BME280;17335;50.720;7.452;2023-02-18T06:19:50;99721.78;;;9.69;100.00
30554;BME280;17335;50.720;7.452;2023-02-18T06:22:17;99718.00;;;9.72;100.00
30554;BME280;17335;50.720;7.452;2023-02-18T06:24:43;99708.66;;;9.66;100.00
30554;BME280;17335;50.720;7.452;2023-02-18T06:27:10;99706.94;;;9.65;100.00
30554;BME280;17335;50.720;7.452;2023-02-18T06:29:36;99701.84;;;9.62;100.00
30554;BME280;17335;50.720;7.452;2023-02-18T06:32:03;99706.44;;;9.71;100.00
30554;BME280;17335;50.720;7.452;2023-02-18T06:34:30;99682.31;;;9.71;100.00
30554;BME280;17335;50.720;7.452;2023-02-18T06:36:57;99684.13;;;9.71;100.00
30554;BME280;17335;50.720;7.452;2023-02-18T06:39:27;99693.75;;;9.73;100.00
30554;BME280;17335;50.720;7.452;2023-02-18T06:41:54;99693.75;;;9.73;100.00
30554;BME280;17335;50.720;7.452;2023-02-18T06:44:20;99694.25;;;9.67;100.00
30554;BME280;17335;50.720;7.452;2023-02-18T06:46:47;99690.28;;;9.62;100.00
30554;BME280;17335;50.720;7.452;2023-02-18T06:49:14;99693.75;;;9.73;100.00
30554;BME280;17335;50.720;7.452;2023-02-18T06:51:40;99692.16;;;9.71;100.00
30554;BME280;17335;50.720;7.452;2023-02-18T06:54:06;99694.59;;;9.74;100.00
30554;BME280;17335;50.720;7.452;2023-02-18T06:56:33;99691.44;;;9.69;100.00
30554;BME280;17335;50.720;7.452;2023-02-18T06:59:00;99694.00;;;9.70;100.00
30554;BME280;17335;50.720;7.452;2023-02-18T07:01:26;99699.25;;;9.72;100.00
30554;BME280;17335;50.720;7.452;2023-02-18T07:03:53;99689.47;;;9.71;100.00
30554;BME280;17335;50.720;7.452;2023-02-18T07:06:20;99699.94;;;9.74;100.00
30554;BME280;17335;50.720;7.452;2023-02-18T07:08:46;99695.19;;;9.77;100.00
30554;BME280;17335;50.720;7.452;2023-02-18T07:11:13;99693.50;;;9.76;100.00
30554;BME280;17335;50.720;7.452;2023-02-18T07:13:40;99686.69;;;9.72;100.00
30554;BME280;17335;50.720;7.452;2023-02-18T07:16:06;99680.81;;;9.79;100.00
30554;BME280;17335;50.720;7.452;2023-02-18T07:18:33;99685.44;;;9.76;100.00
30554;BME280;17335;50.720;7.452;2023-02-18T07:21:00;99691.78;;;9.75;100.00
30554;BME280;17335;50.720;7.452;2023-02-18T07:23:27;99690.63;;;9.68;100.00
30554;BME280;17335;50.720;7.452;2023-02-18T07:26:02;99687.84;;;9.80;100.00
30554;BME280;17335;50.720;7.452;2023-02-18T07:28:28;99684.44;;;9.77;100.00
30554;BME280;17335;50.720;7.452;2023-02-18T07:30:56;99689.56;;;9.81;100.00
30554;BME280;17335;50.720;7.452;2023-02-18T07:33:23;99696.88;;;9.79;100.00
30554;BME280;17335;50.720;7.452;2023-02-18T07:35:57;99692.25;;;9.81;100.00
30554;BME280;17335;50.720;7.452;2023-02-18T07:38:25;99703.09;;;9.79;100.00
30554;BME280;17335;50.720;7.452;2023-02-18T07:40:52;99712.19;;;9.88;100.00
30554;BME280;17335;50.720;7.452;2023-02-18T07:43:21;99712.19;;;9.88;100.00
30554;BME280;17335;50.720;7.452;2023-02-18T07:45:48;99715.84;;;9.87;100.00
30554;BME280;17335;50.720;7.452;2023-02-18T07:48:15;99718.78;;;9.84;100.00
30554;BME280;17335;50.720;7.452;2023-02-18T07:50:43;99710.94;;;9.92;100.00
30554;BME280;17335;50.720;7.452;2023-02-18T07:53:13;99725.59;;;9.88;100.00
30554;BME280;17335;50.720;7.452;2023-02-18T07:55:40;99726.03;;;9.93;100.00
30554;BME280;17335;50.720;7.452;2023-02-18T07:58:30;99720.69;;;9.93;100.00
30554;BME280;17335;50.720;7.452;2023-02-18T08:00:58;99717.28;;;9.91;100.00
30554;BME280;17335;50.720;7.452;2023-02-18T08:03:29;99720.88;;;10.01;100.00
30554;BME280;17335;50.720;7.452;2023-02-18T08:05:57;99717.47;;;9.99;100.00
30554;BME280;17335;50.720;7.452;2023-02-18T08:08:25;99719.16;;;10.00;100.00
30554;BME280;17335;50.720;7.452;2023-02-18T08:10:54;99715.59;;;10.11;100.00
30554;BME280;17335;50.720;7.452;2023-02-18T08:13:21;99694.50;;;10.06;100.00
30554;BME280;17335;50.720;7.452;2023-02-18T08:15:48;99699.03;;;10.06;100.00
30554;BME280;17335;50.720;7.452;2023-02-18T08:18:17;99699.56;;;10.00;100.00
30554;BME280;17335;50.720;7.452;2023-02-18T08:20:45;99721.59;;;10.03;100.00
30554;BME280;17335;50.720;7.452;2023-02-18T08:23:17;99691.97;;;10.05;100.00
30554;BME280;17335;50.720;7.452;2023-02-18T08:25:45;99691.13;;;10.04;100.00
30554;BME280;17335;50.720;7.452;2023-02-18T08:28:20;99699.81;;;9.97;100.00
30554;BME280;17335;50.720;7.452;2023-02-18T08:30:49;99699.56;;;10.00;100.00
30554;BME280;17335;50.720;7.452;2023-02-18T08:33:16;99717.47;;;9.99;100.00
30554;BME280;17335;50.720;7.452;2023-02-18T08:35:44;99716.03;;;9.95;100.00
30554;BME280;17335;50.720;7.452;2023-02-18T08:38:12;99719.13;;;9.90;100.00
30554;BME280;17335;50.720;7.452;2023-02-18T08:40:38;99737.34;;;9.97;100.00
30554;BME280;17335;50.720;7.452;2023-02-18T08:43:06;99722.66;;;9.91;100.00
30554;BME280;17335;50.720;7.452;2023-02-18T08:45:32;99733.84;;;9.96;100.00
30554;BME280;17335;50.720;7.452;2023-02-18T08:48:01;99741.88;;;9.96;100.00
30554;BME280;17335;50.720;7.452;2023-02-18T08:50:45;99747.38;;;9.94;100.00
30554;BME280;17335;50.720;7.452;2023-02-18T08:53:12;99754.81;;;9.91;100.00
30554;BME280;17335;50.720;7.452;2023-02-18T08:55:41;99754.00;;;9.90;100.00
30554;BME280;17335;50.720;7.452;2023-02-18T08:58:08;99757.88;;;9.86;100.00
30554;BME280;17335;50.720;7.452;2023-02-18T09:00:35;99768.03;;;9.83;100.00
30554;BME280;17335;50.720;7.452;2023-02-18T09:03:02;99772.94;;;9.77;100.00
30554;BME280;17335;50.720;7.452;2023-02-18T09:05:29;99784.03;;;9.73;100.00
30554;BME280;17335;50.720;7.452;2023-02-18T09:07:56;99792.50;;;9.57;100.00
30554;BME280;17335;50.720;7.452;2023-02-18T09:10:23;99807.41;;;9.50;100.00
30554;BME280;17335;50.720;7.452;2023-02-18T09:12:50;99823.97;;;9.44;100.00
30554;BME280;17335;50.720;7.452;2023-02-18T09:15:17;99818.19;;;9.27;100.00
30554;BME280;17335;50.720;7.452;2023-02-18T09:17:43;99829.38;;;9.32;100.00
30554;BME280;17335;50.720;7.452;2023-02-18T09:20:10;99836.94;;;9.16;100.00
30554;BME280;17335;50.720;7.452;2023-02-18T09:22:37;99832.81;;;9.00;100.00
30554;BME280;17335;50.720;7.452;2023-02-18T09:25:04;99841.59;;;9.03;100.00
30554;BME280;17335;50.720;7.452;2023-02-18T09:27:30;99840.75;;;8.91;100.00
30554;BME280;17335;50.720;7.452;2023-02-18T09:29:57;99841.56;;;8.80;100.00
30554;BME280;17335;50.720;7.452;2023-02-18T09:32:23;99828.19;;;8.80;100.00
30554;BME280;17335;50.720;7.452;2023-02-18T09:35:00;99823.81;;;8.90;100.00
30554;BME280;17335;50.720;7.452;2023-02-18T09:37:28;99826.50;;;9.01;100.00
30554;BME280;17335;50.720;7.452;2023-02-18T09:39:54;99823.34;;;9.08;100.00
30554;BME280;17335;50.720;7.452;2023-02-18T09:42:28;99814.06;;;9.00;100.00
30554;BME280;17335;50.720;7.452;2023-02-18T09:44:59;99805.19;;;9.11;100.00
30554;BME280;17335;50.720;7.452;2023-02-18T09:47:38;99797.03;;;9.13;100.00
30554;BME280;17335;50.720;7.452;2023-02-18T09:50:11;99793.88;;;9.08;100.00
30554;BME280;17335;50.720;7.452;2023-02-18T09:52:39;99787.03;;;9.04;100.00
30554;BME280;17335;50.720;7.452;2023-02-18T09:55:22;99786.56;;;8.98;100.00
30554;BME280;17335;50.720;7.452;2023-02-18T09:57:52;99786.44;;;9.00;100.00
30554;BME280;17335;50.720;7.452;2023-02-18T10:00:29;99797.28;;;8.98;100.00
30554;BME280;17335;50.720;7.452;2023-02-18T10:05:33;99767.09;;;9.08;100.00
30554;BME280;17335;50.720;7.452;2023-02-18T10:08:03;99773.03;;;9.11;100.00
30554;BME280;17335;50.720;7.452;2023-02-18T10:10:43;99758.06;;;9.09;100.00
30554;BME280;17335;50.720;7.452;2023-02-18T10:13:31;99751.63;;;9.11;100.00
30554;BME280;17335;50.720;7.452;2023-02-18T10:15:58;99746.34;;;9.21;100.00
30554;BME280;17335;50.720;7.452;2023-02-18T10:18:35;99740.50;;;9.27;100.00
30554;BME280;17335;50.720;7.452;2023-02-18T10:21:13;99732.31;;;9.29;100.00
30554;BME280;17335;50.720;7.452;2023-02-18T10:23:46;99728.31;;;9.23;100.00
30554;BME280;17335;50.720;7.452;2023-02-18T10:26:17;99727.56;;;9.32;100.00
30554;BME280;17335;50.720;7.452;2023-02-18T10:28:46;99714.47;;;9.18;100.00
30554;BME280;17335;50.720;7.452;2023-02-18T10:31:17;99713.22;;;9.22;100.00
30554;BME280;17335;50.720;7.452;2023-02-18T10:36:48;99722.94;;;9.23;100.00
30554;BME280;17335;50.720;7.452;2023-02-18T10:42:23;99717.34;;;9.26;100.00
30554;BME280;17335;50.720;7.452;2023-02-18T10:45:13;99707.28;;;9.18;100.00
30554;BME280;17335;50.720;7.452;2023-02-18T10:50:37;99696.25;;;9.33;100.00
30554;BME280;17335;50.720;7.452;2023-02-18T10:53:10;99701.94;;;9.39;100.00
30554;BME280;17335;50.720;7.452;2023-02-18T10:55:40;99692.41;;;9.47;100.00
30554;BME280;17335;50.720;7.452;2023-02-18T10:58:29;99689.34;;;9.51;100.00
30554;BME280;17335;50.720;7.452;2023-02-18T11:00:57;99705.06;;;9.56;100.00
30554;BME280;17335;50.720;7.452;2023-02-18T11:03:47;99701.63;;;9.54;100.00
30554;BME280;17335;50.720;7.452;2023-02-18T11:06:24;99697.19;;;9.43;100.00
30554;BME280;17335;50.720;7.452;2023-02-18T11:08:53;99703.38;;;9.44;100.00
30554;BME280;17335;50.720;7.452;2023-02-18T11:11:24;99713.09;;;9.56;100.00
30554;BME280;17335;50.720;7.452;2023-02-18T11:13:56;99715.03;;;9.54;100.00
30554;BME280;17335;50.720;7.452;2023-02-18T11:16:39;99706.03;;;9.55;100.00
30554;BME280;17335;50.720;7.452;2023-02-18T11:19:33;99702.38;;;9.56;100.00
30554;BME280;17335;50.720;7.452;2023-02-18T11:22:22;99701.84;;;9.62;100.00
30554;BME280;17335;50.720;7.452;2023-02-18T11:25:00;99712.78;;;9.70;100.00
30554;BME280;17335;50.720;7.452;2023-02-18T11:27:31;99712.31;;;9.65;100.00
30554;BME280;17335;50.720;7.452;2023-02-18T11:30:35;99718.25;;;9.69;100.00
30554;BME280;17335;50.720;7.452;2023-02-18T11:33:10;99720.47;;;9.64;100.00
30554;BME280;17335;50.720;7.452;2023-02-18T11:35:48;99731.19;;;9.64;100.00
30554;BME280;17335;50.720;7.452;2023-02-18T11:40:56;99731.28;;;9.52;100.00
30554;BME280;17335;50.720;7.452;2023-02-18T11:43:29;99732.16;;;9.42;100.00
30554;BME280;17335;50.720;7.452;2023-02-18T11:46:15;99733.13;;;9.41;100.00
30554;BME280;17335;50.720;7.452;2023-02-18T11:48:42;99728.88;;;9.38;100.00
30554;BME280;17335;50.720;7.452;2023-02-18T11:51:22;99726.16;;;9.49;100.00
30554;BME280;17335;50.720;7.452;2023-02-18T11:54:05;99723.81;;;9.56;100.00
30554;BME280;17335;50.720;7.452;2023-02-18T11:57:03;99729.69;;;9.71;100.00
30554;BME280;17335;50.720;7.452;2023-02-18T11:59:35;99735.66;;;9.74;100.00
30554;BME280;17335;50.720;7.452;2023-02-18T12:04:45;99725.97;;;9.83;100.00
30554;BME280;17335;50.720;7.452;2023-02-18T12:07:22;99725.91;;;9.73;100.00
30554;BME280;17335;50.720;7.452;2023-02-18T12:09:54;99720.00;;;9.58;100.00
30554;BME280;17335;50.720;7.452;2023-02-18T12:12:31;99740.25;;;9.63;100.00
30554;BME280;17335;50.720;7.452;2023-02-18T12:14:58;99742.38;;;9.48;100.00
30554;BME280;17335;50.720;7.452;2023-02-18T12:39:27;99734.41;;;9.25;100.00
30554;BME280;17335;50.720;7.452;2023-02-18T12:42:28;99739.03;;;9.23;100.00
30554;BME280;17335;50.720;7.452;2023-02-18T12:53:40;99732.56;;;9.37;100.00
30554;BME280;17335;50.720;7.452;2023-02-18T13:01:57;99738.09;;;9.45;100.00
30554;BME280;17335;50.720;7.452;2023-02-18T13:07:19;99744.56;;;9.43;100.00
30554;BME280;17335;50.720;7.452;2023-02-18T13:10:11;99736.06;;;9.37;100.00
30554;BME280;17335;50.720;7.452;2023-02-18T13:13:12;99737.25;;;9.45;100.00
30554;BME280;17335;50.720;7.452;2023-02-18T13:15:52;99737.84;;;9.48;100.00
30554;BME280;17335;50.720;7.452;2023-02-18T13:18:34;99740.50;;;9.60;100.00
30554;BME280;17335;50.720;7.452;2023-02-18T13:21:28;99736.56;;;9.64;100.00
30554;BME280;17335;50.720;7.452;2023-02-18T13:24:00;99734.59;;;9.66;100.00
30554;BME280;17335;50.720;7.452;2023-02-18T13:26:32;99748.66;;;9.58;100.00
30554;BME280;17335;50.720;7.452;2023-02-18T13:39:46;99732.94;;;9.53;100.00
30554;BME280;17335;50.720;7.452;2023-02-18T13:52:48;99738.91;;;9.78;100.00
30554;BME280;17335;50.720;7.452;2023-02-18T13:55:21;99740.03;;;9.75;100.00
30554;BME280;17335;50.720;7.452;2023-02-18T13:57:52;99732.78;;;9.87;100.00
30554;BME280;17335;50.720;7.452;2023-02-18T14:00:23;99737.31;;;9.87;100.00
30554;BME280;17335;50.720;7.452;2023-02-18T14:02:57;99744.91;;;9.82;100.00
30554;BME280;17335;50.720;7.452;2023-02-18T14:05:38;99744.22;;;9.68;100.00
30554;BME280;17335;50.720;7.452;2023-02-18T14:08:14;99732.13;;;9.74;100.00
30554;BME280;17335;50.720;7.452;2023-02-18T14:10:41;99728.81;;;9.82;100.00
30554;BME280;17335;50.720;7.452;2023-02-18T14:15:56;99739.44;;;9.72;100.00
30554;BME280;17335;50.720;7.452;2023-02-18T14:18:30;99733.50;;;9.68;100.00
30554;BME280;17335;50.720;7.452;2023-02-18T14:21:40;99726.56;;;9.66;100.00
30554;BME280;17335;50.720;7.452;2023-02-18T14:24:10;99737.69;;;9.61;100.00
30554;BME280;17335;50.720;7.452;2023-02-18T14:26:42;99726.84;;;9.63;100.00
30554;BME280;17335;50.720;7.452;2023-02-18T14:29:25;99737.81;;;9.60;100.00
30554;BME280;17335;50.720;7.452;2023-02-18T14:31:56;99723.06;;;9.54;100.00
30554;BME280;17335;50.720;7.452;2023-02-18T14:45:16;99725.25;;;9.60;100.00
30554;BME280;17335;50.720;7.452;2023-02-18T14:50:41;99729.56;;;9.51;100.00
30554;BME280;17335;50.720;7.452;2023-02-18T14:53:16;99726.97;;;9.61;100.00
30554;BME280;17335;50.720;7.452;2023-02-18T14:55:53;99727.34;;;9.56;100.00
30554;BME280;17335;50.720;7.452;2023-02-18T15:00:53;99721.31;;;9.43;100.00
30554;BME280;17335;50.720;7.452;2023-02-18T15:03:20;99728.50;;;9.43;100.00
30554;BME280;17335;50.720;7.452;2023-02-18T15:05:49;99724.81;;;9.44;100.00
30554;BME280;17335;50.720;7.452;2023-02-18T15:08:25;99731.66;;;9.48;100.00
30554;BME280;17335;50.720;7.452;2023-02-18T15:11:06;99725.28;;;9.49;100.00
30554;BME280;17335;50.720;7.452;2023-02-18T15:13:40;99726.91;;;9.40;100.00
30554;BME280;17335;50.720;7.452;2023-02-18T15:16:30;99730.66;;;9.49;100.00
30554;BME280;17335;50.720;7.452;2023-02-18T15:19:12;99729.34;;;9.43;100.00
30554;BME280;17335;50.720;7.452;2023-02-18T15:21:42;99736.06;;;9.37;100.00
30554;BME280;17335;50.720;7.452;2023-02-18T15:24:24;99729.94;;;9.47;100.00
30554;BME280;17335;50.720;7.452;2023-02-18T15:26:55;99728.50;;;9.43;100.00
30554;BME280;17335;50.720;7.452;2023-02-18T15:29:25;99728.25;;;9.46;100.00
30554;BME280;17335;50.720;7.452;2023-02-18T15:31:54;99734.69;;;9.43;100.00
30554;BME280;17335;50.720;7.452;2023-02-18T15:34:35;99727.97;;;9.49;100.00